sensor_id;sensor_type;location;lat;lon;timestamp;temperature;humidity
24638;DHT22;12773;50.162;8.548;2023-08-31T00:00:13;14.90;99.90
24638;DHT22;12773;50.162;8.548;2023-08-31T00:03:02;14.90;99.90
24638;DHT22;12773;50.162;8.548;2023-08-31T00:05:50;14.90;99.90
24638;DHT22;12773;50.162;8.548;2023-08-31T00:08:38;14.90;99.90
24638;DHT22;12773;50.162;8.548;2023-08-31T00:11:27;14.90;99.90
24638;DHT22;12773;50.162;8.548;2023-08-31T00:14:14;14.90;99.90
24638;DHT22;12773;50.162;8.548;2023-08-31T00:17:01;14.90;99.90
24638;DHT22;12773;50.162;8.548;2023-08-31T00:19:49;15.00;99.90
24638;DHT22;12773;50.162;8.548;2023-08-31T00:22:37;15.00;99.90
24638;DHT22;12773;50.162;8.548;2023-08-31T00:25:24;15.00;99.90
24638;DHT22;12773;50.162;8.548;2023-08-31T00:28:12;15.00;99.90
24638;DHT22;12773;50.162;8.548;2023-08-31T00:31:01;15.10;99.90
24638;DHT22;12773;50.162;8.548;2023-08-31T00:33:52;15.20;99.90
24638;DHT22;12773;50.162;8.548;2023-08-31T00:36:39;15.30;99.90
24638;DHT22;12773;50.162;8.548;2023-08-31T00:39:26;15.30;99.90
24638;DHT22;12773;50.162;8.548;2023-08-31T00:42:14;15.30;99.90
24638;DHT22;12773;50.162;8.548;2023-08-31T00:45:01;15.30;99.90
24638;DHT22;12773;50.162;8.548;2023-08-31T00:47:49;15.30;99.90
24638;DHT22;12773;50.162;8.548;2023-08-31T00:50:40;15.30;99.90
24638;DHT22;12773;50.162;8.548;2023-08-31T00:53:29;15.20;99.90
24638;DHT22;12773;50.162;8.548;2023-08-31T00:56:17;15.20;99.90
24638;DHT22;12773;50.162;8.548;2023-08-31T00:59:05;15.10;99.90
24638;DHT22;12773;50.162;8.548;2023-08-31T01:02:17;15.00;99.90
24638;DHT22;12773;50.162;8.548;2023-08-31T01:08:04;14.80;99.90
24638;DHT22;12773;50.162;8.548;2023-08-31T01:11:14;14.70;99.90
24638;DHT22;12773;50.162;8.548;2023-08-31T01:14:16;14.70;99.90
24638;DHT22;12773;50.162;8.548;2023-08-31T01:17:11;14.70;99.90
24638;DHT22;12773;50.162;8.548;2023-08-31T01:19:57;14.60;99.90
24638;DHT22;12773;50.162;8.548;2023-08-31T01:22:58;14.60;99.90
24638;DHT22;12773;50.162;8.548;2023-08-31T01:25:46;14.60;99.90
24638;DHT22;12773;50.162;8.548;2023-08-31T01:28:34;14.60;99.90
24638;DHT22;12773;50.162;8.548;2023-08-31T01:31:25;14.60;99.90
24638;DHT22;12773;50.162;8.548;2023-08-31T01:34:12;14.70;99.90
24638;DHT22;12773;50.162;8.548;2023-08-31T01:37:03;14.60;99.90
24638;DHT22;12773;50.162;8.548;2023-08-31T01:39:56;14.60;99.90
24638;DHT22;12773;50.162;8.548;2023-08-31T01:42:43;14.70;99.90
24638;DHT22;12773;50.162;8.548;2023-08-31T01:45:35;14.70;99.90
24638;DHT22;12773;50.162;8.548;2023-08-31T01:48:24;14.70;99.90
24638;DHT22;12773;50.162;8.548;2023-08-31T01:51:12;14.70;99.90
24638;DHT22;12773;50.162;8.548;2023-08-31T01:54:00;14.60;99.90
24638;DHT22;12773;50.162;8.548;2023-08-31T01:56:47;14.50;99.90
24638;DHT22;12773;50.162;8.548;2023-08-31T01:59:35;14.40;99.90
24638;DHT22;12773;50.162;8.548;2023-08-31T02:02:24;14.50;99.90
24638;DHT22;12773;50.162;8.548;2023-08-31T02:05:11;14.60;99.90
24638;DHT22;12773;50.162;8.548;2023-08-31T02:07:59;14.60;99.90
24638;DHT22;12773;50.162;8.548;2023-08-31T02:10:47;14.60;99.90
24638;DHT22;12773;50.162;8.548;2023-08-31T02:13:34;14.80;99.90
24638;DHT22;12773;50.162;8.548;2023-08-31T02:16:25;14.80;99.90
24638;DHT22;12773;50.162;8.548;2023-08-31T02:19:13;14.80;99.90
24638;DHT22;12773;50.162;8.548;2023-08-31T02:22:00;14.80;99.90
24638;DHT22;12773;50.162;8.548;2023-08-31T02:24:47;14.80;99.90
24638;DHT22;12773;50.162;8.548;2023-08-31T02:27:35;14.90;99.90
24638;DHT22;12773;50.162;8.548;2023-08-31T02:30:24;15.00;99.90
24638;DHT22;12773;50.162;8.548;2023-08-31T02:33:11;15.10;99.90
24638;DHT22;12773;50.162;8.548;2023-08-31T02:35:59;15.20;99.90
24638;DHT22;12773;50.162;8.548;2023-08-31T02:38:46;15.30;99.90
24638;DHT22;12773;50.162;8.548;2023-08-31T02:41:36;15.40;99.90
24638;DHT22;12773;50.162;8.548;2023-08-31T02:44:23;15.40;99.90
24638;DHT22;12773;50.162;8.548;2023-08-31T02:47:11;15.40;99.90
24638;DHT22;12773;50.162;8.548;2023-08-31T02:49:58;15.40;99.90
24638;DHT22;12773;50.162;8.548;2023-08-31T02:52:46;15.40;99.90
24638;DHT22;12773;50.162;8.548;2023-08-31T02:55:34;15.40;99.90
24638;DHT22;12773;50.162;8.548;2023-08-31T02:58:21;15.40;99.90
24638;DHT22;12773;50.162;8.548;2023-08-31T03:01:10;15.30;99.90
24638;DHT22;12773;50.162;8.548;2023-08-31T03:03:58;15.40;99.90
24638;DHT22;12773;50.162;8.548;2023-08-31T03:06:45;15.20;99.90
24638;DHT22;12773;50.162;8.548;2023-08-31T03:09:33;15.20;99.90
24638;DHT22;12773;50.162;8.548;2023-08-31T03:12:20;15.20;99.90
24638;DHT22;12773;50.162;8.548;2023-08-31T03:15:08;15.00;99.90
24638;DHT22;12773;50.162;8.548;2023-08-31T03:17:56;14.90;99.90
24638;DHT22;12773;50.162;8.548;2023-08-31T03:20:43;14.80;99.90
24638;DHT22;12773;50.162;8.548;2023-08-31T03:23:31;14.70;99.90
24638;DHT22;12773;50.162;8.548;2023-08-31T03:26:18;14.70;99.90
24638;DHT22;12773;50.162;8.548;2023-08-31T03:29:05;14.70;99.90
24638;DHT22;12773;50.162;8.548;2023-08-31T03:31:53;14.80;99.90
24638;DHT22;12773;50.162;8.548;2023-08-31T03:34:40;14.90;99.90
24638;DHT22;12773;50.162;8.548;2023-08-31T03:37:28;15.00;99.90
24638;DHT22;12773;50.162;8.548;2023-08-31T03:40:15;15.10;99.90
24638;DHT22;12773;50.162;8.548;2023-08-31T03:43:03;15.20;99.90
24638;DHT22;12773;50.162;8.548;2023-08-31T03:45:55;15.30;99.90
24638;DHT22;12773;50.162;8.548;2023-08-31T03:48:43;15.40;99.90
24638;DHT22;12773;50.162;8.548;2023-08-31T03:51:30;15.40;99.90
24638;DHT22;12773;50.162;8.548;2023-08-31T03:54:18;15.40;99.90
24638;DHT22;12773;50.162;8.548;2023-08-31T03:57:06;15.50;99.90
24638;DHT22;12773;50.162;8.548;2023-08-31T03:59:53;15.60;99.90
24638;DHT22;12773;50.162;8.548;2023-08-31T04:02:42;15.60;99.90
24638;DHT22;12773;50.162;8.548;2023-08-31T04:05:32;15.60;99.90
24638;DHT22;12773;50.162;8.548;2023-08-31T04:08:23;15.50;99.90
24638;DHT22;12773;50.162;8.548;2023-08-31T04:11:10;15.50;99.90
24638;DHT22;12773;50.162;8.548;2023-08-31T04:13:58;15.50;99.90
24638;DHT22;12773;50.162;8.548;2023-08-31T04:16:46;15.30;99.90
24638;DHT22;12773;50.162;8.548;2023-08-31T04:19:35;15.30;99.90
24638;DHT22;12773;50.162;8.548;2023-08-31T04:22:23;15.10;99.90
24638;DHT22;12773;50.162;8.548;2023-08-31T04:25:12;15.00;99.90
24638;DHT22;12773;50.162;8.548;2023-08-31T04:28:00;14.90;99.90
24638;DHT22;12773;50.162;8.548;2023-08-31T04:30:47;14.90;99.90
24638;DHT22;12773;50.162;8.548;2023-08-31T04:33:36;14.90;99.90
24638;DHT22;12773;50.162;8.548;2023-08-31T04:36:24;14.80;99.90
24638;DHT22;12773;50.162;8.548;2023-08-31T04:39:13;14.70;99.90
24638;DHT22;12773;50.162;8.548;2023-08-31T04:42:00;14.70;99.90
24638;DHT22;12773;50.162;8.548;2023-08-31T04:44:49;14.70;99.90
24638;DHT22;12773;50.162;8.548;2023-08-31T04:47:36;14.60;99.90
24638;DHT22;12773;50.162;8.548;2023-08-31T04:50:24;14.60;99.90
24638;DHT22;12773;50.162;8.548;2023-08-31T04:53:11;14.50;99.90
24638;DHT22;12773;50.162;8.548;2023-08-31T04:55:59;14.40;99.90
24638;DHT22;12773;50.162;8.548;2023-08-31T04:58:47;14.40;99.90
24638;DHT22;12773;50.162;8.548;2023-08-31T05:01:34;14.40;99.90
24638;DHT22;12773;50.162;8.548;2023-08-31T05:04:21;14.30;99.90
24638;DHT22;12773;50.162;8.548;2023-08-31T05:07:10;14.40;99.90
24638;DHT22;12773;50.162;8.548;2023-08-31T05:09:57;14.40;99.90
24638;DHT22;12773;50.162;8.548;2023-08-31T05:12:44;14.40;99.90
24638;DHT22;12773;50.162;8.548;2023-08-31T05:15:32;14.40;99.90
24638;DHT22;12773;50.162;8.548;2023-08-31T05:18:20;14.30;99.90
24638;DHT22;12773;50.162;8.548;2023-08-31T05:21:07;14.30;99.90
24638;DHT22;12773;50.162;8.548;2023-08-31T05:23:55;14.40;99.90
24638;DHT22;12773;50.162;8.548;2023-08-31T05:26:42;14.40;99.90
24638;DHT22;12773;50.162;8.548;2023-08-31T05:29:30;14.40;99.90
24638;DHT22;12773;50.162;8.548;2023-08-31T05:32:17;14.30;99.90
24638;DHT22;12773;50.162;8.548;2023-08-31T05:35:05;14.30;99.90
24638;DHT22;12773;50.162;8.548;2023-08-31T05:37:53;14.40;99.90
24638;DHT22;12773;50.162;8.548;2023-08-31T05:40:40;14.40;99.90
24638;DHT22;12773;50.162;8.548;2023-08-31T05:43:34;14.50;99.90
24638;DHT22;12773;50.162;8.548;2023-08-31T05:46:21;14.50;99.90
24638;DHT22;12773;50.162;8.548;2023-08-31T05:49:09;14.50;99.90
24638;DHT22;12773;50.162;8.548;2023-08-31T05:51:56;14.50;99.90
24638;DHT22;12773;50.162;8.548;2023-08-31T05:54:44;14.60;99.90
24638;DHT22;12773;50.162;8.548;2023-08-31T05:57:31;14.70;99.90
24638;DHT22;12773;50.162;8.548;2023-08-31T06:00:19;14.60;99.90
24638;DHT22;12773;50.162;8.548;2023-08-31T06:03:07;14.70;99.90
24638;DHT22;12773;50.162;8.548;2023-08-31T06:05:54;14.70;99.90
24638;DHT22;12773;50.162;8.548;2023-08-31T06:08:41;14.60;99.90
24638;DHT22;12773;50.162;8.548;2023-08-31T06:11:29;14.50;99.90
24638;DHT22;12773;50.162;8.548;2023-08-31T06:14:17;14.40;99.90
24638;DHT22;12773;50.162;8.548;2023-08-31T06:17:04;14.40;99.90
24638;DHT22;12773;50.162;8.548;2023-08-31T06:19:51;14.40;99.90
24638;DHT22;12773;50.162;8.548;2023-08-31T06:22:39;14.50;99.90
24638;DHT22;12773;50.162;8.548;2023-08-31T06:25:26;14.50;99.90
24638;DHT22;12773;50.162;8.548;2023-08-31T06:28:14;14.60;99.90
24638;DHT22;12773;50.162;8.548;2023-08-31T06:31:03;14.60;99.90
24638;DHT22;12773;50.162;8.548;2023-08-31T06:33:50;14.60;99.90
24638;DHT22;12773;50.162;8.548;2023-08-31T06:36:38;14.70;99.90
24638;DHT22;12773;50.162;8.548;2023-08-31T06:39:25;14.70;99.90
24638;DHT22;12773;50.162;8.548;2023-08-31T06:42:13;14.80;99.90
24638;DHT22;12773;50.162;8.548;2023-08-31T06:45:01;14.90;99.90
24638;DHT22;12773;50.162;8.548;2023-08-31T06:47:48;15.00;99.90
24638;DHT22;12773;50.162;8.548;2023-08-31T06:50:36;15.00;99.90
24638;DHT22;12773;50.162;8.548;2023-08-31T06:53:24;15.10;99.90
24638;DHT22;12773;50.162;8.548;2023-08-31T06:56:12;15.20;99.90
24638;DHT22;12773;50.162;8.548;2023-08-31T06:58:59;15.30;99.90
24638;DHT22;12773;50.162;8.548;2023-08-31T07:01:47;15.40;99.90
24638;DHT22;12773;50.162;8.548;2023-08-31T07:04:35;15.50;99.90
24638;DHT22;12773;50.162;8.548;2023-08-31T07:07:22;15.60;99.90
24638;DHT22;12773;50.162;8.548;2023-08-31T07:10:10;15.70;99.90
24638;DHT22;12773;50.162;8.548;2023-08-31T07:12:57;15.90;99.90
24638;DHT22;12773;50.162;8.548;2023-08-31T07:15:45;16.00;99.90
24638;DHT22;12773;50.162;8.548;2023-08-31T07:18:36;16.10;99.90
24638;DHT22;12773;50.162;8.548;2023-08-31T07:21:24;16.00;99.90
24638;DHT22;12773;50.162;8.548;2023-08-31T07:24:13;15.80;99.90
24638;DHT22;12773;50.162;8.548;2023-08-31T07:27:02;15.90;99.90
24638;DHT22;12773;50.162;8.548;2023-08-31T07:29:50;15.90;99.90
24638;DHT22;12773;50.162;8.548;2023-08-31T07:32:38;16.10;99.90
24638;DHT22;12773;50.162;8.548;2023-08-31T07:35:25;16.20;99.90
24638;DHT22;12773;50.162;8.548;2023-08-31T07:38:13;16.30;99.90
24638;DHT22;12773;50.162;8.548;2023-08-31T07:41:00;16.40;99.90
24638;DHT22;12773;50.162;8.548;2023-08-31T07:43:49;16.10;99.90
24638;DHT22;12773;50.162;8.548;2023-08-31T07:46:38;16.30;99.90
24638;DHT22;12773;50.162;8.548;2023-08-31T07:49:25;16.40;99.90
24638;DHT22;12773;50.162;8.548;2023-08-31T07:52:13;16.50;99.90
24638;DHT22;12773;50.162;8.548;2023-08-31T07:55:02;16.50;99.90
24638;DHT22;12773;50.162;8.548;2023-08-31T07:57:50;16.70;99.90
24638;DHT22;12773;50.162;8.548;2023-08-31T08:00:38;16.60;99.90
24638;DHT22;12773;50.162;8.548;2023-08-31T08:03:25;16.90;99.90
24638;DHT22;12773;50.162;8.548;2023-08-31T08:06:13;17.10;99.90
24638;DHT22;12773;50.162;8.548;2023-08-31T08:09:00;17.40;99.90
24638;DHT22;12773;50.162;8.548;2023-08-31T08:11:48;17.60;99.90
24638;DHT22;12773;50.162;8.548;2023-08-31T08:14:37;17.70;99.90
24638;DHT22;12773;50.162;8.548;2023-08-31T08:17:25;17.60;99.90
24638;DHT22;12773;50.162;8.548;2023-08-31T08:20:12;17.60;99.90
24638;DHT22;12773;50.162;8.548;2023-08-31T08:23:01;17.70;99.90
24638;DHT22;12773;50.162;8.548;2023-08-31T08:25:48;17.60;99.90
24638;DHT22;12773;50.162;8.548;2023-08-31T08:28:36;17.50;99.90
24638;DHT22;12773;50.162;8.548;2023-08-31T08:31:24;17.40;99.90
24638;DHT22;12773;50.162;8.548;2023-08-31T08:34:11;17.40;99.90
24638;DHT22;12773;50.162;8.548;2023-08-31T08:36:59;17.50;99.90
24638;DHT22;12773;50.162;8.548;2023-08-31T08:39:50;17.60;99.90
24638;DHT22;12773;50.162;8.548;2023-08-31T08:42:42;17.70;99.90
24638;DHT22;12773;50.162;8.548;2023-08-31T08:45:38;17.90;99.90
24638;DHT22;12773;50.162;8.548;2023-08-31T08:48:33;17.90;99.90
24638;DHT22;12773;50.162;8.548;2023-08-31T08:51:17;17.70;99.90
24638;DHT22;12773;50.162;8.548;2023-08-31T08:54:05;17.50;99.90
24638;DHT22;12773;50.162;8.548;2023-08-31T08:56:58;17.80;99.90
24638;DHT22;12773;50.162;8.548;2023-08-31T08:59:41;18.20;99.90
24638;DHT22;12773;50.162;8.548;2023-08-31T09:02:29;18.60;99.90
24638;DHT22;12773;50.162;8.548;2023-08-31T09:05:17;18.60;99.90
24638;DHT22;12773;50.162;8.548;2023-08-31T09:08:07;18.60;99.90
24638;DHT22;12773;50.162;8.548;2023-08-31T09:10:59;18.40;99.90
24638;DHT22;12773;50.162;8.548;2023-08-31T09:13:48;18.30;99.90
24638;DHT22;12773;50.162;8.548;2023-08-31T09:16:36;18.40;99.90
24638;DHT22;12773;50.162;8.548;2023-08-31T09:19:25;18.30;99.90
24638;DHT22;12773;50.162;8.548;2023-08-31T09:22:17;18.40;99.90
24638;DHT22;12773;50.162;8.548;2023-08-31T09:25:07;18.50;99.90
24638;DHT22;12773;50.162;8.548;2023-08-31T09:27:56;18.50;99.90
24638;DHT22;12773;50.162;8.548;2023-08-31T09:30:45;18.90;99.90
24638;DHT22;12773;50.162;8.548;2023-08-31T09:33:37;19.10;99.90
24638;DHT22;12773;50.162;8.548;2023-08-31T09:36:25;19.30;99.90
24638;DHT22;12773;50.162;8.548;2023-08-31T09:39:15;19.30;99.90
24638;DHT22;12773;50.162;8.548;2023-08-31T09:42:02;19.40;99.90
24638;DHT22;12773;50.162;8.548;2023-08-31T09:44:50;19.40;99.90
24638;DHT22;12773;50.162;8.548;2023-08-31T09:47:38;19.70;99.90
24638;DHT22;12773;50.162;8.548;2023-08-31T09:50:32;20.00;99.90
24638;DHT22;12773;50.162;8.548;2023-08-31T09:53:17;20.20;99.90
24638;DHT22;12773;50.162;8.548;2023-08-31T09:56:06;20.00;99.90
24638;DHT22;12773;50.162;8.548;2023-08-31T09:58:55;19.50;99.90
24638;DHT22;12773;50.162;8.548;2023-08-31T10:01:44;19.20;99.90
24638;DHT22;12773;50.162;8.548;2023-08-31T10:04:34;19.40;99.90
24638;DHT22;12773;50.162;8.548;2023-08-31T10:07:24;19.30;99.90
24638;DHT22;12773;50.162;8.548;2023-08-31T10:10:12;19.20;99.90
24638;DHT22;12773;50.162;8.548;2023-08-31T10:13:01;19.30;99.90
24638;DHT22;12773;50.162;8.548;2023-08-31T10:15:50;19.00;99.90
24638;DHT22;12773;50.162;8.548;2023-08-31T10:18:39;19.10;99.90
24638;DHT22;12773;50.162;8.548;2023-08-31T10:21:26;19.30;99.90
24638;DHT22;12773;50.162;8.548;2023-08-31T10:24:14;19.30;99.90
24638;DHT22;12773;50.162;8.548;2023-08-31T10:27:20;19.40;99.90
24638;DHT22;12773;50.162;8.548;2023-08-31T10:30:26;19.50;99.90
24638;DHT22;12773;50.162;8.548;2023-08-31T10:35:59;20.00;99.90
24638;DHT22;12773;50.162;8.548;2023-08-31T10:41:56;20.10;99.90
24638;DHT22;12773;50.162;8.548;2023-08-31T10:44:44;20.40;99.90
24638;DHT22;12773;50.162;8.548;2023-08-31T10:47:38;20.30;99.90
24638;DHT22;12773;50.162;8.548;2023-08-31T10:50:27;20.20;99.90
24638;DHT22;12773;50.162;8.548;2023-08-31T10:53:15;20.30;99.90
24638;DHT22;12773;50.162;8.548;2023-08-31T10:56:02;20.60;99.90
24638;DHT22;12773;50.162;8.548;2023-08-31T10:58:55;21.00;99.90
24638;DHT22;12773;50.162;8.548;2023-08-31T11:01:54;21.20;99.90
24638;DHT22;12773;50.162;8.548;2023-08-31T11:04:55;21.10;99.90
24638;DHT22;12773;50.162;8.548;2023-08-31T11:07:44;21.40;99.90
24638;DHT22;12773;50.162;8.548;2023-08-31T11:10:31;21.60;99.90
24638;DHT22;12773;50.162;8.548;2023-08-31T11:13:19;21.90;99.90
24638;DHT22;12773;50.162;8.548;2023-08-31T11:16:07;21.90;99.90
24638;DHT22;12773;50.162;8.548;2023-08-31T11:18:55;22.10;99.90
24638;DHT22;12773;50.162;8.548;2023-08-31T11:21:43;22.20;99.90
24638;DHT22;12773;50.162;8.548;2023-08-31T11:24:31;22.40;99.90
24638;DHT22;12773;50.162;8.548;2023-08-31T11:27:22;22.20;99.90
24638;DHT22;12773;50.162;8.548;2023-08-31T11:30:11;22.10;99.90
24638;DHT22;12773;50.162;8.548;2023-08-31T11:33:07;22.00;99.90
24638;DHT22;12773;50.162;8.548;2023-08-31T11:35:55;21.80;99.90
24638;DHT22;12773;50.162;8.548;2023-08-31T11:38:44;22.10;99.90
24638;DHT22;12773;50.162;8.548;2023-08-31T11:41:33;22.10;99.90
24638;DHT22;12773;50.162;8.548;2023-08-31T11:44:22;22.10;99.90
24638;DHT22;12773;50.162;8.548;2023-08-31T11:47:10;22.40;99.90
24638;DHT22;12773;50.162;8.548;2023-08-31T11:49:59;22.40;99.90
24638;DHT22;12773;50.162;8.548;2023-08-31T11:52:48;22.10;99.90
24638;DHT22;12773;50.162;8.548;2023-08-31T11:55:48;21.90;99.90
24638;DHT22;12773;50.162;8.548;2023-08-31T11:58:27;21.90;99.90
24638;DHT22;12773;50.162;8.548;2023-08-31T12:01:21;21.40;99.90
24638;DHT22;12773;50.162;8.548;2023-08-31T12:04:15;21.20;99.90
24638;DHT22;12773;50.162;8.548;2023-08-31T12:07:04;20.90;99.90
24638;DHT22;12773;50.162;8.548;2023-08-31T12:09:51;20.80;99.90
24638;DHT22;12773;50.162;8.548;2023-08-31T12:12:39;20.70;99.90
24638;DHT22;12773;50.162;8.548;2023-08-31T12:15:33;20.70;99.90
24638;DHT22;12773;50.162;8.548;2023-08-31T12:18:21;20.70;99.90
24638;DHT22;12773;50.162;8.548;2023-08-31T12:21:08;20.70;99.90
24638;DHT22;12773;50.162;8.548;2023-08-31T12:23:58;20.70;99.90
24638;DHT22;12773;50.162;8.548;2023-08-31T12:26:47;20.80;99.90
24638;DHT22;12773;50.162;8.548;2023-08-31T12:29:34;21.00;99.90
24638;DHT22;12773;50.162;8.548;2023-08-31T12:32:22;21.00;99.90
24638;DHT22;12773;50.162;8.548;2023-08-31T12:35:10;21.20;99.90
24638;DHT22;12773;50.162;8.548;2023-08-31T12:37:58;21.20;99.90
24638;DHT22;12773;50.162;8.548;2023-08-31T12:40:46;21.20;99.90
24638;DHT22;12773;50.162;8.548;2023-08-31T12:43:34;21.40;99.90
24638;DHT22;12773;50.162;8.548;2023-08-31T12:46:22;21.50;99.90
24638;DHT22;12773;50.162;8.548;2023-08-31T12:49:10;21.60;99.90
24638;DHT22;12773;50.162;8.548;2023-08-31T12:51:57;22.00;99.90
24638;DHT22;12773;50.162;8.548;2023-08-31T12:54:44;22.50;99.90
24638;DHT22;12773;50.162;8.548;2023-08-31T12:57:32;22.70;99.90
24638;DHT22;12773;50.162;8.548;2023-08-31T13:00:20;22.90;99.90
24638;DHT22;12773;50.162;8.548;2023-08-31T13:03:07;22.80;99.90
24638;DHT22;12773;50.162;8.548;2023-08-31T13:05:55;22.90;99.90
24638;DHT22;12773;50.162;8.548;2023-08-31T13:08:44;22.40;99.90
24638;DHT22;12773;50.162;8.548;2023-08-31T13:11:31;22.10;99.90
24638;DHT22;12773;50.162;8.548;2023-08-31T13:14:19;22.10;99.60
24638;DHT22;12773;50.162;8.548;2023-08-31T13:17:07;22.40;99.70
24638;DHT22;12773;50.162;8.548;2023-08-31T13:19:55;23.00;99.90
24638;DHT22;12773;50.162;8.548;2023-08-31T13:22:43;23.00;97.50
24638;DHT22;12773;50.162;8.548;2023-08-31T13:25:31;22.60;97.60
24638;DHT22;12773;50.162;8.548;2023-08-31T13:28:19;22.40;97.70
24638;DHT22;12773;50.162;8.548;2023-08-31T13:31:06;22.40;97.70
24638;DHT22;12773;50.162;8.548;2023-08-31T13:33:54;22.60;97.60
24638;DHT22;12773;50.162;8.548;2023-08-31T13:36:41;23.00;97.80
24638;DHT22;12773;50.162;8.548;2023-08-31T13:39:30;23.30;96.50
24638;DHT22;12773;50.162;8.548;2023-08-31T13:42:22;23.20;94.60
24638;DHT22;12773;50.162;8.548;2023-08-31T13:45:10;23.50;93.70
24638;DHT22;12773;50.162;8.548;2023-08-31T13:47:58;23.70;94.30
24638;DHT22;12773;50.162;8.548;2023-08-31T13:50:47;23.70;92.20
24638;DHT22;12773;50.162;8.548;2023-08-31T13:53:34;23.60;91.40
24638;DHT22;12773;50.162;8.548;2023-08-31T13:56:22;23.70;91.40
24638;DHT22;12773;50.162;8.548;2023-08-31T13:59:09;23.70;89.40
24638;DHT22;12773;50.162;8.548;2023-08-31T14:01:57;23.60;88.40
24638;DHT22;12773;50.162;8.548;2023-08-31T14:04:44;23.40;87.40
24638;DHT22;12773;50.162;8.548;2023-08-31T14:07:33;23.30;90.60
24638;DHT22;12773;50.162;8.548;2023-08-31T14:10:20;23.50;90.60
24638;DHT22;12773;50.162;8.548;2023-08-31T14:13:10;23.60;89.00
24638;DHT22;12773;50.162;8.548;2023-08-31T14:15:59;23.60;91.30
24638;DHT22;12773;50.162;8.548;2023-08-31T14:18:46;23.30;89.50
24638;DHT22;12773;50.162;8.548;2023-08-31T14:21:35;23.40;89.80
24638;DHT22;12773;50.162;8.548;2023-08-31T14:24:22;23.00;88.00
24638;DHT22;12773;50.162;8.548;2023-08-31T14:27:10;23.20;88.50
24638;DHT22;12773;50.162;8.548;2023-08-31T14:29:58;23.40;86.80
24638;DHT22;12773;50.162;8.548;2023-08-31T14:32:45;23.50;88.80
24638;DHT22;12773;50.162;8.548;2023-08-31T14:35:37;23.50;91.00
24638;DHT22;12773;50.162;8.548;2023-08-31T14:38:25;23.50;88.90
24638;DHT22;12773;50.162;8.548;2023-08-31T14:41:14;23.40;86.80
24638;DHT22;12773;50.162;8.548;2023-08-31T14:44:02;23.20;86.00
24638;DHT22;12773;50.162;8.548;2023-08-31T14:46:50;22.90;87.30
24638;DHT22;12773;50.162;8.548;2023-08-31T14:49:39;22.90;89.70
24638;DHT22;12773;50.162;8.548;2023-08-31T14:52:28;22.70;90.30
24638;DHT22;12773;50.162;8.548;2023-08-31T14:55:16;22.70;90.30
24638;DHT22;12773;50.162;8.548;2023-08-31T14:58:04;22.40;90.60
24638;DHT22;12773;50.162;8.548;2023-08-31T15:00:56;22.20;91.20
24638;DHT22;12773;50.162;8.548;2023-08-31T15:03:44;22.40;92.70
24638;DHT22;12773;50.162;8.548;2023-08-31T15:06:31;22.60;92.10
24638;DHT22;12773;50.162;8.548;2023-08-31T15:09:19;22.70;92.20
24638;DHT22;12773;50.162;8.548;2023-08-31T15:12:07;22.60;92.30
24638;DHT22;12773;50.162;8.548;2023-08-31T15:14:55;22.40;91.40
24638;DHT22;12773;50.162;8.548;2023-08-31T15:17:42;22.40;91.80
24638;DHT22;12773;50.162;8.548;2023-08-31T15:20:30;22.10;91.30
24638;DHT22;12773;50.162;8.548;2023-08-31T15:23:17;22.10;92.90
24638;DHT22;12773;50.162;8.548;2023-08-31T15:26:05;22.10;92.70
24638;DHT22;12773;50.162;8.548;2023-08-31T15:28:54;22.10;93.30
24638;DHT22;12773;50.162;8.548;2023-08-31T15:31:41;22.00;92.00
24638;DHT22;12773;50.162;8.548;2023-08-31T15:34:29;21.80;92.80
24638;DHT22;12773;50.162;8.548;2023-08-31T15:37:17;21.90;93.20
24638;DHT22;12773;50.162;8.548;2023-08-31T15:40:05;21.80;92.70
24638;DHT22;12773;50.162;8.548;2023-08-31T15:42:53;21.80;93.20
24638;DHT22;12773;50.162;8.548;2023-08-31T15:45:45;21.90;92.70
24638;DHT22;12773;50.162;8.548;2023-08-31T15:48:33;21.90;92.70
24638;DHT22;12773;50.162;8.548;2023-08-31T15:51:20;22.00;93.20
24638;DHT22;12773;50.162;8.548;2023-08-31T15:54:08;22.10;92.90
24638;DHT22;12773;50.162;8.548;2023-08-31T15:57:14;22.40;93.40
24638;DHT22;12773;50.162;8.548;2023-08-31T16:00:03;22.60;92.50
24638;DHT22;12773;50.162;8.548;2023-08-31T16:02:57;22.60;92.60
24638;DHT22;12773;50.162;8.548;2023-08-31T16:05:48;22.60;92.70
24638;DHT22;12773;50.162;8.548;2023-08-31T16:08:35;22.70;92.10
24638;DHT22;12773;50.162;8.548;2023-08-31T16:11:23;22.50;92.00
24638;DHT22;12773;50.162;8.548;2023-08-31T16:14:10;22.40;92.80
24638;DHT22;12773;50.162;8.548;2023-08-31T16:17:00;22.30;93.70
24638;DHT22;12773;50.162;8.548;2023-08-31T16:19:47;22.20;93.60
24638;DHT22;12773;50.162;8.548;2023-08-31T16:22:35;22.20;94.00
24638;DHT22;12773;50.162;8.548;2023-08-31T16:25:26;22.20;93.70
24638;DHT22;12773;50.162;8.548;2023-08-31T16:28:13;22.10;94.10
24638;DHT22;12773;50.162;8.548;2023-08-31T16:31:01;21.80;94.80
24638;DHT22;12773;50.162;8.548;2023-08-31T16:33:51;21.50;95.10
24638;DHT22;12773;50.162;8.548;2023-08-31T16:36:48;21.40;95.80
24638;DHT22;12773;50.162;8.548;2023-08-31T16:39:38;21.50;95.90
24638;DHT22;12773;50.162;8.548;2023-08-31T16:42:25;21.40;96.00
24638;DHT22;12773;50.162;8.548;2023-08-31T16:45:13;21.40;96.50
24638;DHT22;12773;50.162;8.548;2023-08-31T16:48:00;21.30;96.60
24638;DHT22;12773;50.162;8.548;2023-08-31T16:50:49;21.30;96.90
24638;DHT22;12773;50.162;8.548;2023-08-31T16:53:37;21.20;97.60
24638;DHT22;12773;50.162;8.548;2023-08-31T16:56:25;21.10;97.40
24638;DHT22;12773;50.162;8.548;2023-08-31T16:59:12;21.10;97.80
24638;DHT22;12773;50.162;8.548;2023-08-31T17:01:59;20.90;98.10
24638;DHT22;12773;50.162;8.548;2023-08-31T17:04:47;21.00;98.20
24638;DHT22;12773;50.162;8.548;2023-08-31T17:07:36;20.90;98.60
24638;DHT22;12773;50.162;8.548;2023-08-31T17:10:24;20.90;99.10
24638;DHT22;12773;50.162;8.548;2023-08-31T17:13:11;20.90;98.90
24638;DHT22;12773;50.162;8.548;2023-08-31T17:15:59;20.80;99.00
24638;DHT22;12773;50.162;8.548;2023-08-31T17:18:46;20.80;99.60
24638;DHT22;12773;50.162;8.548;2023-08-31T17:21:34;20.70;99.40
24638;DHT22;12773;50.162;8.548;2023-08-31T17:24:22;20.70;99.90
24638;DHT22;12773;50.162;8.548;2023-08-31T17:27:09;20.50;99.90
24638;DHT22;12773;50.162;8.548;2023-08-31T17:29:57;20.50;99.90
24638;DHT22;12773;50.162;8.548;2023-08-31T17:32:44;20.40;99.90
24638;DHT22;12773;50.162;8.548;2023-08-31T17:35:31;20.40;99.90
24638;DHT22;12773;50.162;8.548;2023-08-31T17:38:19;20.30;99.90
24638;DHT22;12773;50.162;8.548;2023-08-31T17:41:08;20.20;99.90
24638;DHT22;12773;50.162;8.548;2023-08-31T17:43:56;20.30;99.90
24638;DHT22;12773;50.162;8.548;2023-08-31T17:46:43;20.20;99.90
24638;DHT22;12773;50.162;8.548;2023-08-31T17:49:31;20.30;99.90
24638;DHT22;12773;50.162;8.548;2023-08-31T17:52:18;20.20;99.90